Time;durP1;ratioP1;P1;durP2;ratioP2;P2;SDS_P1;SDS_P2;PMS_P1;PMS_P2;Temp;Humidity;BMP_temperature;BMP_pressure;BME280_temperature;BME280_humidity;BME280_pressure;Samples;Min_cycle;Max_cycle;Signal;HPM_P1;HPM_P2
2020/12/01 00:00:12;;;;;;;15.40;11.80;;;2.10;1.00;;;;;;5049835;28;20200;-54
2020/12/01 00:02:37;;;;;;;16.80;12.10;;;2.10;1.00;;;;;;5053828;28;20271;-57
2020/12/01 00:05:04;;;;;;;15.43;12.17;;;2.00;1.00;;;;;;5060318;28;20710;-55
2020/12/01 00:07:30;;;;;;;16.42;11.95;;;2.00;1.00;;;;;;5060197;28;20549;-56
2020/12/01 00:09:55;;;;;;;17.03;12.27;;;2.10;1.00;;;;;;5049534;28;20180;-57
2020/12/01 00:12:21;;;;;;;14.77;12.07;;;2.10;1.00;;;;;;5058047;28;20180;-57
2020/12/01 00:14:47;;;;;;;16.53;12.60;;;2.10;1.00;;;;;;5070206;28;20192;-56
2020/12/01 00:17:12;;;;;;;16.33;11.03;;;2.10;1.00;;;;;;5065555;28;20538;-54
2020/12/01 00:19:38;;;;;;;17.50;11.97;;;2.10;1.00;;;;;;5057540;28;20669;-58
2020/12/01 00:22:04;;;;;;;17.97;12.40;;;2.10;1.00;;;;;;5066420;28;20204;-58
2020/12/01 00:24:29;;;;;;;16.90;12.70;;;2.10;1.00;;;;;;5066041;28;20291;-58
2020/12/01 00:26:55;;;;;;;15.63;12.20;;;2.10;1.00;;;;;;5068021;28;20172;-57
2020/12/01 00:29:20;;;;;;;16.77;12.33;;;2.10;1.00;;;;;;5069602;28;20173;-57
2020/12/01 00:31:46;;;;;;;16.33;11.80;;;2.10;1.00;;;;;;5052088;28;20525;-57
2020/12/01 00:34:14;;;;;;;17.27;11.83;;;2.20;1.00;;;;;;5054820;28;20697;-55
2020/12/01 00:36:41;;;;;;;18.25;12.45;;;2.20;1.00;;;;;;5055678;28;20226;-57
2020/12/01 00:39:08;;;;;;;16.92;12.30;;;2.30;1.00;;;;;;5073357;28;20691;-57
2020/12/01 00:41:35;;;;;;;16.23;12.10;;;2.30;1.00;;;;;;5057671;28;20237;-56
2020/12/01 00:44:01;;;;;;;17.85;12.63;;;2.40;1.00;;;;;;5062492;28;20195;-59
2020/12/01 00:46:28;;;;;;;18.67;13.50;;;2.40;1.00;;;;;;5067661;28;20183;-57
2020/12/01 00:48:53;;;;;;;20.13;12.60;;;2.50;1.00;;;;;;5068254;28;20427;-55
2020/12/01 00:51:19;;;;;;;19.17;13.43;;;2.50;1.00;;;;;;5059541;28;20193;-54
2020/12/01 00:53:45;;;;;;;16.73;13.10;;;2.50;99.90;;;;;;5060978;28;20677;-57
2020/12/01 00:56:11;;;;;;;19.37;13.00;;;2.50;1.00;;;;;;5064816;28;20200;-55
2020/12/01 00:58:37;;;;;;;16.50;13.85;;;2.50;99.90;;;;;;5068394;28;20271;-56
2020/12/01 01:01:04;;;;;;;18.77;13.80;;;2.50;99.90;;;;;;5064859;28;20224;-57
2020/12/01 01:03:30;;;;;;;17.75;12.82;;;2.50;99.90;;;;;;5065232;28;20491;-57
2020/12/01 01:05:55;;;;;;;18.47;13.50;;;2.50;1.00;;;;;;5066420;28;20180;-55
2020/12/01 01:08:21;;;;;;;17.73;13.33;;;2.60;99.90;;;;;;5056040;28;20423;-57
2020/12/01 01:10:47;;;;;;;17.50;13.90;;;2.60;99.90;;;;;;5049625;28;20188;-56
2020/12/01 01:13:14;;;;;;;19.20;14.67;;;2.60;99.90;;;;;;5067153;28;20499;-57
2020/12/01 01:15:40;;;;;;;22.00;14.68;;;2.60;99.90;;;;;;5052538;28;20445;-58
2020/12/01 01:18:06;;;;;;;21.80;14.23;;;2.60;99.90;;;;;;5057615;28;20192;-58
2020/12/01 01:20:31;;;;;;;19.45;13.88;;;2.60;99.90;;;;;;5067258;28;20192;-57
2020/12/01 01:22:57;;;;;;;20.10;13.90;;;2.60;99.90;;;;;;5068280;28;20530;-58
2020/12/01 01:25:24;;;;;;;21.73;15.73;;;2.70;99.90;;;;;;5057654;28;20252;-54
2020/12/01 01:27:50;;;;;;;21.25;14.55;;;2.70;99.90;;;;;;5063459;28;20195;-59
2020/12/01 01:30:18;;;;;;;22.27;15.30;;;2.60;99.90;;;;;;5068552;28;20192;-55
2020/12/01 01:32:44;;;;;;;21.60;15.50;;;2.60;99.90;;;;;;5066509;28;20443;-54
2020/12/01 01:35:10;;;;;;;22.90;15.87;;;2.60;99.90;;;;;;5056845;28;20203;-58
2020/12/01 01:37:36;;;;;;;23.67;15.85;;;2.60;99.90;;;;;;5059987;28;20205;-57
2020/12/01 01:40:03;;;;;;;22.23;15.70;;;2.60;99.90;;;;;;5068513;28;20188;-57
2020/12/01 01:42:28;;;;;;;22.08;16.10;;;2.60;99.90;;;;;;5059884;28;20481;-54
2020/12/01 01:44:54;;;;;;;22.70;15.97;;;2.60;99.90;;;;;;5069000;28;20658;-56
2020/12/01 01:47:28;;;;;;;23.60;16.13;;;2.60;99.90;;;;;;5062209;28;20195;-57
2020/12/01 01:50:17;;;;;;;26.40;16.60;;;2.60;99.90;;;;;;5062960;28;20980;-57
2020/12/01 01:52:50;;;;;;;22.55;16.42;;;2.60;99.90;;;;;;5065001;28;20199;-56
2020/12/01 01:55:24;;;;;;;22.60;17.17;;;2.60;99.90;;;;;;5066053;28;20619;-54
2020/12/01 01:57:55;;;;;;;21.95;15.93;;;2.60;99.90;;;;;;5062843;28;20699;-55
2020/12/01 02:03:32;;;;;;;24.58;16.67;;;2.60;99.90;;;;;;5069638;28;20186;-58
2020/12/01 02:05:59;;;;;;;25.20;16.70;;;2.60;99.90;;;;;;5070881;28;20190;-58
2020/12/01 02:08:26;;;;;;;22.58;16.13;;;2.60;1.00;;;;;;5064799;28;20194;-53
2020/12/01 02:10:54;;;;;;;23.30;15.95;;;2.60;99.90;;;;;;5066337;28;20227;-58
2020/12/01 02:13:31;;;;;;;25.13;16.90;;;2.60;99.90;;;;;;5063802;28;20207;-56
2020/12/01 02:15:58;;;;;;;22.58;16.55;;;2.60;99.90;;;;;;5067933;28;20196;-54
2020/12/01 02:18:33;;;;;;;24.45;16.38;;;2.60;99.90;;;;;;5066297;28;20188;-58
2020/12/01 02:21:01;;;;;;;21.95;15.80;;;2.60;99.90;;;;;;5053099;28;20208;-57
2020/12/01 02:23:26;;;;;;;22.52;15.73;;;2.60;1.00;;;;;;5060326;28;20193;-58
2020/12/01 02:25:52;;;;;;;22.47;15.57;;;2.60;99.90;;;;;;5070816;28;20185;-56
2020/12/01 02:28:18;;;;;;;23.90;15.60;;;2.60;1.00;;;;;;5068147;28;20542;-55
2020/12/01 02:30:43;;;;;;;23.70;16.27;;;2.60;99.90;;;;;;5054558;28;20659;-57
2020/12/01 02:33:09;;;;;;;23.83;16.50;;;2.70;99.90;;;;;;5065932;28;20196;-53
2020/12/01 02:35:34;;;;;;;21.93;15.57;;;2.70;99.90;;;;;;5069409;28;20192;-56
2020/12/01 02:38:00;;;;;;;21.90;16.03;;;2.70;99.90;;;;;;5070630;28;20207;-58
2020/12/01 02:40:26;;;;;;;28.30;17.43;;;2.70;99.90;;;;;;5069646;28;20220;-58
2020/12/01 02:42:52;;;;;;;21.43;16.17;;;2.60;1.00;;;;;;5065222;28;20581;-58
2020/12/01 02:45:18;;;;;;;22.90;16.38;;;2.60;1.00;;;;;;5056162;28;20932;-57
2020/12/01 02:47:44;;;;;;;24.90;16.43;;;2.60;1.00;;;;;;5067445;28;20188;-57
2020/12/01 02:50:12;;;;;;;25.48;17.33;;;2.60;1.00;;;;;;5070960;28;20913;-58
2020/12/01 02:52:38;;;;;;;22.90;16.02;;;2.60;1.00;;;;;;5057486;28;20554;-57
2020/12/01 02:55:04;;;;;;;23.40;16.17;;;2.50;1.00;;;;;;5060100;28;20189;-57
2020/12/01 02:57:29;;;;;;;24.23;17.77;;;2.50;1.00;;;;;;5063991;28;20840;-56
2020/12/01 02:59:55;;;;;;;24.40;16.63;;;2.50;1.00;;;;;;5060659;28;20192;-59
2020/12/01 03:02:21;;;;;;;22.43;16.90;;;2.50;1.00;;;;;;5057016;28;20206;-56
2020/12/01 03:04:46;;;;;;;30.50;19.53;;;2.40;1.00;;;;;;5070875;28;20180;-58
2020/12/01 03:07:12;;;;;;;26.87;17.60;;;2.40;1.00;;;;;;5069374;28;20195;-58
2020/12/01 03:09:37;;;;;;;27.50;18.40;;;2.40;1.00;;;;;;5070786;28;20707;-56
2020/12/01 03:12:03;;;;;;;32.00;19.80;;;2.30;1.00;;;;;;5068637;28;20237;-58
2020/12/01 03:14:29;;;;;;;29.00;19.83;;;2.20;1.00;;;;;;5070556;28;20723;-56
2020/12/01 03:16:54;;;;;;;27.77;18.93;;;2.10;1.00;;;;;;5067625;28;20215;-54
2020/12/01 03:19:20;;;;;;;27.00;19.30;;;2.00;8.40;;;;;;5059907;28;20646;-56
2020/12/01 03:21:46;;;;;;;31.83;19.00;;;2.00;15.80;;;;;;5064401;28;20202;-58
2020/12/01 03:24:12;;;;;;;29.47;19.60;;;1.80;30.80;;;;;;5070434;28;20180;-58
2020/12/01 03:26:38;;;;;;;30.80;19.43;;;1.70;41.30;;;;;;5064592;28;20434;-58
2020/12/01 03:29:03;;;;;;;32.80;21.02;;;1.60;51.20;;;;;;5059513;28;20442;-57
2020/12/01 03:31:29;;;;;;;30.57;20.70;;;1.60;61.40;;;;;;5070221;28;20282;-56
2020/12/01 03:33:55;;;;;;;33.10;20.17;;;1.50;65.80;;;;;;5066051;28;20519;-58
2020/12/01 03:36:21;;;;;;;31.73;20.67;;;1.50;77.30;;;;;;5070172;28;20188;-55
2020/12/01 03:38:47;;;;;;;35.40;22.15;;;1.50;84.00;;;;;;5062480;28;20279;-57
2020/12/01 03:41:13;;;;;;;29.43;19.53;;;1.40;90.00;;;;;;5061562;28;20317;-58
2020/12/01 03:43:39;;;;;;;33.92;21.33;;;1.40;93.70;;;;;;5068713;28;20183;-57
2020/12/01 03:46:05;;;;;;;34.57;20.97;;;1.40;97.20;;;;;;5064096;28;20191;-58
2020/12/01 03:48:31;;;;;;;34.17;20.83;;;1.40;97.90;;;;;;5061649;28;20219;-57
2020/12/01 03:50:57;;;;;;;31.80;20.90;;;1.30;99.90;;;;;;5069921;28;20444;-55
2020/12/01 03:53:22;;;;;;;33.85;21.20;;;1.40;99.90;;;;;;5064261;28;20193;-57
2020/12/01 03:55:50;;;;;;;32.80;21.30;;;1.30;99.90;;;;;;5061791;28;20186;-58
2020/12/01 03:58:15;;;;;;;34.17;21.20;;;1.40;99.90;;;;;;5057959;28;20208;-56
2020/12/01 04:00:41;;;;;;;33.23;22.20;;;1.40;99.90;;;;;;5062623;28;20205;-59
2020/12/01 04:03:06;;;;;;;35.37;22.33;;;1.30;99.90;;;;;;5064420;28;20259;-59
2020/12/01 04:05:32;;;;;;;32.80;21.00;;;1.30;99.90;;;;;;5068675;28;20183;-59
2020/12/01 04:07:58;;;;;;;34.67;21.50;;;1.30;99.90;;;;;;5055161;28;20241;-57
2020/12/01 04:10:26;;;;;;;37.70;22.23;;;1.30;99.90;;;;;;5056247;28;20197;-55
2020/12/01 04:12:52;;;;;;;35.65;20.80;;;1.30;99.90;;;;;;5067849;28;20181;-59
2020/12/01 04:15:20;;;;;;;30.92;19.50;;;1.30;99.90;;;;;;5055290;28;20179;-56
2020/12/01 04:17:46;;;;;;;33.38;20.33;;;1.30;99.90;;;;;;5067619;28;20687;-58
2020/12/01 04:20:13;;;;;;;32.20;20.40;;;1.30;99.90;;;;;;5054000;28;20186;-58
2020/12/01 04:22:38;;;;;;;32.75;21.00;;;1.30;99.90;;;;;;5068275;28;20469;-58
2020/12/01 04:25:06;;;;;;;39.33;22.10;;;1.30;99.90;;;;;;5068831;28;20183;-56
2020/12/01 04:27:32;;;;;;;32.78;20.80;;;1.30;99.90;;;;;;5056669;28;20622;-56
2020/12/01 04:29:58;;;;;;;31.70;20.15;;;1.30;99.90;;;;;;5065592;28;20279;-58
2020/12/01 04:32:23;;;;;;;31.43;20.37;;;1.30;99.90;;;;;;5050288;28;20269;-59
2020/12/01 04:34:49;;;;;;;34.20;21.30;;;1.30;99.90;;;;;;5051014;28;20614;-55
2020/12/01 04:37:15;;;;;;;33.73;21.37;;;1.20;99.90;;;;;;5069155;28;20187;-59
2020/12/01 04:39:40;;;;;;;33.90;21.07;;;1.30;99.90;;;;;;5067419;28;21304;-57
2020/12/01 04:42:07;;;;;;;35.20;22.07;;;1.30;99.10;;;;;;5068461;28;20292;-56
2020/12/01 04:44:32;;;;;;;32.83;20.58;;;1.40;99.90;;;;;;5064170;28;20267;-57
2020/12/01 04:47:01;;;;;;;32.00;20.73;;;1.40;96.70;;;;;;5061134;28;20261;-57
2020/12/01 04:49:35;;;;;;;35.70;21.52;;;1.40;94.70;;;;;;5067206;28;20214;-59
2020/12/01 04:52:01;;;;;;;33.35;20.02;;;1.40;95.00;;;;;;5066590;28;20217;-59
2020/12/01 04:54:45;;;;;;;29.27;20.63;;;1.40;93.90;;;;;;5069075;28;20212;-57
2020/12/01 04:57:49;;;;;;;30.35;20.10;;;1.40;92.50;;;;;;5053433;28;21060;-58
2020/12/01 05:00:25;;;;;;;31.20;19.13;;;1.40;94.60;;;;;;5063689;28;20216;-57
2020/12/01 05:03:07;;;;;;;33.58;20.08;;;1.50;91.50;;;;;;5065375;28;20203;-56
2020/12/01 05:05:43;;;;;;;32.15;20.67;;;1.40;89.00;;;;;;5064177;28;20190;-58
2020/12/01 05:08:30;;;;;;;28.75;19.30;;;1.40;88.50;;;;;;5068222;28;20188;-58
2020/12/01 05:11:00;;;;;;;33.13;21.80;;;1.50;83.30;;;;;;5066145;28;20219;-57
2020/12/01 05:13:33;;;;;;;32.33;20.52;;;1.50;81.80;;;;;;5053300;28;20172;-59
2020/12/01 05:16:16;;;;;;;32.47;20.80;;;1.50;77.90;;;;;;5067870;28;20227;-57
2020/12/01 05:18:41;;;;;;;36.05;24.23;;;1.50;77.10;;;;;;5065017;28;20277;-56
2020/12/01 05:21:09;;;;;;;31.93;21.00;;;1.50;75.90;;;;;;5044672;28;20262;-57
2020/12/01 05:23:47;;;;;;;30.88;21.33;;;1.50;75.40;;;;;;5046032;28;20191;-57
2020/12/01 05:26:16;;;;;;;40.95;29.08;;;1.50;70.50;;;;;;5050380;28;20897;-58
2020/12/01 05:28:46;;;;;;;31.48;19.45;;;1.50;74.00;;;;;;5050589;28;20186;-60
2020/12/01 05:31:12;;;;;;;33.42;22.70;;;1.50;79.60;;;;;;5056139;28;20183;-59
2020/12/01 05:33:38;;;;;;;32.25;20.70;;;1.50;77.60;;;;;;5056042;28;20621;-58
2020/12/01 05:36:28;;;;;;;36.20;22.30;;;1.50;87.40;;;;;;5047479;28;20282;-59
2020/12/01 05:38:59;;;;;;;30.90;19.73;;;1.50;87.40;;;;;;5044916;28;20185;-59
2020/12/01 05:41:34;;;;;;;33.20;21.08;;;1.50;87.80;;;;;;5053834;28;20228;-57
2020/12/01 05:44:13;;;;;;;30.52;20.55;;;1.50;89.20;;;;;;5065219;28;20184;-57
2020/12/01 05:46:43;;;;;;;33.35;21.58;;;1.40;86.40;;;;;;5064253;28;20214;-59
2020/12/01 05:49:35;;;;;;;36.08;22.38;;;1.40;82.00;;;;;;5080085;28;20184;-59
2020/12/01 05:52:14;;;;;;;33.95;20.35;;;1.50;83.20;;;;;;5065748;28;20186;-58
2020/12/01 05:55:01;;;;;;;35.03;22.17;;;1.50;87.10;;;;;;5071935;28;20218;-59
2020/12/01 05:57:28;;;;;;;34.25;21.17;;;1.50;89.70;;;;;;5053455;28;20652;-59
2020/12/01 06:00:20;;;;;;;33.55;22.10;;;1.50;87.60;;;;;;5061008;28;20185;-57
2020/12/01 06:03:08;;;;;;;35.35;20.75;;;1.50;88.70;;;;;;5059412;28;20245;-56
2020/12/01 06:05:37;;;;;;;32.28;21.02;;;1.50;92.30;;;;;;5056869;28;20595;-59
2020/12/01 06:08:32;;;;;;;35.90;21.38;;;1.50;95.20;;;;;;5059521;28;20183;-56
2020/12/01 06:11:31;;;;;;;33.85;21.45;;;1.50;92.50;;;;;;5065293;28;20205;-57
2020/12/01 06:14:21;;;;;;;34.70;23.35;;;1.50;90.60;;;;;;5082138;28;20571;-59
2020/12/01 06:17:04;;;;;;;35.58;21.90;;;1.50;87.30;;;;;;5062618;28;20207;-58
2020/12/01 06:19:46;;;;;;;35.17;21.85;;;1.50;90.00;;;;;;5057101;28;20175;-59
2020/12/01 06:22:30;;;;;;;35.33;20.58;;;1.50;89.30;;;;;;5067250;28;20684;-59
2020/12/01 06:25:10;;;;;;;34.63;21.58;;;1.40;85.40;;;;;;5057732;28;20222;-58
2020/12/01 06:28:06;;;;;;;35.85;22.20;;;1.50;81.40;;;;;;5069005;28;20186;-59
2020/12/01 06:30:44;;;;;;;34.30;21.08;;;1.50;79.00;;;;;;5051519;28;20668;-57
2020/12/01 06:33:32;;;;;;;35.17;20.75;;;1.50;77.90;;;;;;5070387;28;20299;-58
2020/12/01 06:36:24;;;;;;;34.92;21.20;;;1.50;73.30;;;;;;5070746;28;20188;-56
2020/12/01 06:39:10;;;;;;;35.70;20.83;;;1.50;70.60;;;;;;5069725;28;20186;-55
2020/12/01 06:41:40;;;;;;;35.40;21.02;;;1.50;67.20;;;;;;5053416;28;20247;-58
2020/12/01 06:44:14;;;;;;;30.20;20.02;;;1.60;62.30;;;;;;5052177;28;20183;-57
2020/12/01 06:46:51;;;;;;;34.30;20.95;;;1.50;61.70;;;;;;5064370;28;20630;-55
2020/12/01 06:49:27;;;;;;;33.78;20.90;;;1.50;56.40;;;;;;5050812;28;20191;-58
2020/12/01 06:51:56;;;;;;;32.42;20.92;;;1.60;57.60;;;;;;5051168;28;20261;-58
2020/12/01 06:54:22;;;;;;;33.58;21.30;;;1.50;60.10;;;;;;5052761;28;20179;-57
2020/12/01 06:57:06;;;;;;;36.97;22.80;;;1.50;65.50;;;;;;5050645;28;20195;-58
2020/12/01 06:59:32;;;;;;;36.97;22.02;;;1.50;63.40;;;;;;5064522;28;20267;-55
2020/12/01 07:02:27;;;;;;;34.70;22.63;;;1.50;61.80;;;;;;5070807;28;20229;-59
2020/12/01 07:05:32;;;;;;;36.80;21.65;;;1.50;65.40;;;;;;5060552;28;20184;-57
2020/12/01 07:07:57;;;;;;;33.50;20.15;;;1.50;65.30;;;;;;5068600;28;20665;-59
2020/12/01 07:10:32;;;;;;;36.40;23.33;;;1.50;67.90;;;;;;5063660;28;20186;-56
2020/12/01 07:13:13;;;;;;;35.75;21.30;;;1.50;69.60;;;;;;5057215;28;20464;-58
2020/12/01 07:15:45;;;;;;;39.55;23.92;;;1.50;76.50;;;;;;5058916;28;20315;-59
2020/12/01 07:18:24;;;;;;;36.53;22.98;;;1.50;83.80;;;;;;5068277;28;20174;-59
2020/12/01 07:21:16;;;;;;;37.55;22.83;;;1.50;85.10;;;;;;5069565;28;20199;-58
2020/12/01 07:23:52;;;;;;;38.85;23.10;;;1.60;83.20;;;;;;5059154;28;20169;-57
2020/12/01 07:26:43;;;;;;;35.58;21.60;;;1.50;74.80;;;;;;5070283;28;20186;-57
2020/12/01 07:29:28;;;;;;;38.70;23.42;;;1.50;69.00;;;;;;5059664;28;20985;-58
2020/12/01 07:32:05;;;;;;;37.53;23.60;;;1.50;69.20;;;;;;5052119;28;20182;-59
2020/12/01 07:34:32;;;;;;;40.70;23.98;;;1.50;69.40;;;;;;5055227;28;20198;-56
2020/12/01 07:37:21;;;;;;;38.80;24.10;;;1.50;70.60;;;;;;5065474;28;20182;-58
2020/12/01 07:39:56;;;;;;;40.95;24.50;;;1.50;70.70;;;;;;5036738;28;20201;-59
2020/12/01 07:42:24;;;;;;;42.33;23.55;;;1.60;63.00;;;;;;5065724;28;20213;-58
2020/12/01 07:44:50;;;;;;;37.25;21.67;;;1.60;60.00;;;;;;5055309;28;20237;-59
2020/12/01 07:47:21;;;;;;;36.03;21.23;;;1.60;58.60;;;;;;5053381;28;20183;-56
2020/12/01 07:50:13;;;;;;;35.17;22.17;;;1.60;54.50;;;;;;5050767;28;20187;-57
2020/12/01 07:52:42;;;;;;;37.28;21.75;;;1.70;55.00;;;;;;5066344;28;20173;-55
2020/12/01 07:55:23;;;;;;;40.75;23.35;;;1.70;51.20;;;;;;5067764;28;20205;-56
2020/12/01 07:58:00;;;;;;;36.83;23.73;;;1.70;46.70;;;;;;5070058;28;20159;-59
2020/12/01 08:00:27;;;;;;;36.35;22.08;;;1.70;45.20;;;;;;5068986;28;20631;-58
2020/12/01 08:03:05;;;;;;;34.78;21.45;;;1.70;39.70;;;;;;5068838;28;20223;-57
2020/12/01 08:05:31;;;;;;;38.13;24.08;;;1.80;36.10;;;;;;5067400;28;20180;-56
2020/12/01 08:07:57;;;;;;;31.77;20.50;;;1.80;34.10;;;;;;5068319;28;20190;-58
2020/12/01 08:10:24;;;;;;;38.20;23.33;;;1.90;34.40;;;;;;5069744;28;20184;-57
2020/12/01 08:12:53;;;;;;;35.40;21.90;;;1.90;34.10;;;;;;5074299;28;20438;-56
2020/12/01 08:15:21;;;;;;;37.22;22.35;;;1.90;25.90;;;;;;5062841;28;20260;-59
2020/12/01 08:17:48;;;;;;;35.60;22.48;;;1.90;24.50;;;;;;5052885;28;20187;-59
2020/12/01 08:20:17;;;;;;;36.95;23.25;;;1.90;22.50;;;;;;5064518;28;20188;-57
2020/12/01 08:22:51;;;;;;;33.72;22.08;;;1.90;20.00;;;;;;5068762;28;20214;-56
2020/12/01 08:25:21;;;;;;;33.25;22.33;;;2.00;25.00;;;;;;5051218;28;20191;-59
2020/12/01 08:27:53;;;;;;;36.22;21.95;;;2.10;20.30;;;;;;5062424;28;20632;-58
2020/12/01 08:30:31;;;;;;;35.28;21.38;;;2.20;16.60;;;;;;5066069;28;20739;-57
2020/12/01 08:33:07;;;;;;;34.13;22.83;;;2.30;8.40;;;;;;5056382;28;20195;-56
2020/12/01 08:35:50;;;;;;;32.40;22.60;;;2.20;2.30;;;;;;5048559;28;20582;-53
2020/12/01 08:38:28;;;;;;;35.70;23.35;;;2.20;6.60;;;;;;5064229;28;20201;-56
2020/12/01 08:41:07;;;;;;;36.42;21.90;;;2.30;3.60;;;;;;5066405;28;20224;-55
2020/12/01 08:43:56;;;;;;;36.67;22.02;;;2.40;1.00;;;;;;5068570;28;20187;-56
2020/12/01 08:46:25;;;;;;;33.13;22.17;;;2.40;1.50;;;;;;5066762;28;20219;-54
2020/12/01 08:49:23;;;;;;;31.83;21.95;;;2.50;1.00;;;;;;5066167;28;20188;-54
2020/12/01 08:51:59;;;;;;;37.03;21.45;;;2.50;1.00;;;;;;5065074;28;20181;-58
2020/12/01 08:54:28;;;;;;;32.30;20.98;;;2.50;1.00;;;;;;5048426;28;20182;-56
2020/12/01 08:56:54;;;;;;;33.15;21.58;;;2.50;1.00;;;;;;5066751;28;20181;-55
2020/12/01 08:59:32;;;;;;;31.77;20.87;;;2.50;1.00;;;;;;5072547;28;20206;-58
2020/12/01 09:02:03;;;;;;;35.35;21.65;;;2.50;1.00;;;;;;5067358;28;20208;-55
2020/12/01 09:04:32;;;;;;;39.67;21.70;;;2.50;1.00;;;;;;5052760;28;20265;-54
2020/12/01 09:07:17;;;;;;;32.67;21.30;;;2.60;1.00;;;;;;5067153;28;20329;-57
2020/12/01 09:09:43;;;;;;;34.58;21.55;;;2.60;1.00;;;;;;5063725;28;20187;-57
2020/12/01 09:20:15;;;;;;;32.85;20.65;;;2.70;1.00;;;;;;5072239;28;20207;-55
2020/12/01 09:22:41;;;;;;;32.67;20.65;;;2.80;6.80;;;;;;5060454;28;20235;-54
2020/12/01 09:25:26;;;;;;;29.07;20.37;;;2.90;4.90;;;;;;5062839;28;20184;-54
2020/12/01 09:27:54;;;;;;;29.40;20.50;;;2.80;1.00;;;;;;5072117;28;20218;-57
2020/12/01 09:30:36;;;;;;;32.63;21.17;;;2.90;1.00;;;;;;5069576;28;20249;-54
2020/12/01 09:33:05;;;;;;;28.65;19.70;;;2.80;1.00;;;;;;5063623;28;20184;-53
2020/12/01 09:35:31;;;;;;;32.75;21.30;;;2.80;1.00;;;;;;5070551;28;20188;-54
2020/12/01 09:37:57;;;;;;;36.90;22.75;;;2.90;1.00;;;;;;5063406;28;20638;-52
2020/12/01 09:40:25;;;;;;;31.70;20.63;;;3.00;1.00;;;;;;5064065;28;20310;-55
2020/12/01 09:42:54;;;;;;;32.53;21.08;;;3.10;1.00;;;;;;5061698;28;20805;-57
2020/12/01 09:45:24;;;;;;;33.15;22.38;;;3.10;1.00;;;;;;5067609;28;20246;-58
2020/12/01 09:50:31;;;;;;;32.95;22.05;;;3.30;1.00;;;;;;5071664;28;20153;-55
2020/12/01 09:53:08;;;;;;;30.35;19.17;;;3.30;1.00;;;;;;5071488;28;20288;-58
2020/12/01 10:09:35;;;;;;;33.13;21.30;;;3.30;2.20;;;;;;5063158;28;20382;-54
2020/12/01 10:12:20;;;;;;;32.30;21.77;;;3.20;3.30;;;;;;5070803;28;20660;-56
2020/12/01 10:24:13;;;;;;;33.55;22.45;;;3.20;16.70;;;;;;5070298;28;20278;-58
2020/12/01 10:36:23;;;;;;;31.40;21.63;;;3.60;1.00;;;;;;5069452;28;20212;-56
2020/12/01 10:38:48;;;;;;;27.77;20.02;;;3.80;1.00;;;;;;5057525;28;20185;-58
2020/12/01 10:41:14;;;;;;;30.10;20.70;;;4.00;1.00;;;;;;5066941;28;20236;-54
2020/12/01 10:43:40;;;;;;;28.80;19.83;;;4.00;1.00;;;;;;5070539;28;20271;-55
2020/12/01 10:46:09;;;;;;;27.83;20.27;;;4.10;1.00;;;;;;5061446;28;20919;-55
2020/12/01 10:48:34;;;;;;;30.88;20.52;;;4.20;1.00;;;;;;5065434;28;20526;-56
2020/12/01 10:51:00;;;;;;;31.77;20.83;;;4.20;1.00;;;;;;5064459;28;20273;-53
2020/12/01 10:53:26;;;;;;;28.70;19.37;;;4.20;1.00;;;;;;5064902;28;20193;-57
2020/12/01 10:55:51;;;;;;;28.10;20.07;;;4.30;1.00;;;;;;5062603;28;20193;-56
2020/12/01 10:58:17;;;;;;;26.17;19.70;;;4.30;1.00;;;;;;5066881;28;20209;-56
2020/12/01 11:00:42;;;;;;;28.00;19.00;;;4.30;1.00;;;;;;5070104;28;20226;-54
2020/12/01 11:03:08;;;;;;;28.33;19.43;;;4.20;1.00;;;;;;5062113;28;20184;-52
2020/12/01 11:05:33;;;;;;;26.50;19.10;;;4.20;1.00;;;;;;5051715;28;20216;-57
2020/12/01 11:07:59;;;;;;;24.50;18.60;;;4.30;1.00;;;;;;5053992;28;20177;-53
2020/12/01 11:10:25;;;;;;;29.08;19.70;;;4.20;1.00;;;;;;5056609;28;20221;-56
2020/12/01 11:12:51;;;;;;;29.03;19.40;;;4.10;1.00;;;;;;5067820;28;20220;-55
2020/12/01 11:15:18;;;;;;;28.13;19.57;;;4.20;1.00;;;;;;5067675;28;20427;-54
2020/12/01 11:17:44;;;;;;;27.00;18.38;;;4.30;1.00;;;;;;5073410;28;20193;-59
2020/12/01 11:20:13;;;;;;;26.63;19.80;;;4.50;1.00;;;;;;5069577;28;20185;-58
2020/12/01 11:22:38;;;;;;;25.30;18.23;;;4.70;1.00;;;;;;5050431;28;20561;-56
2020/12/01 11:25:04;;;;;;;25.20;18.57;;;4.80;99.90;;;;;;5051931;28;20223;-59
2020/12/01 11:27:30;;;;;;;27.83;18.60;;;5.00;99.90;;;;;;5050920;28;20292;-56
2020/12/01 11:29:55;;;;;;;26.40;19.50;;;5.00;99.90;;;;;;5049128;28;20216;-56
2020/12/01 11:32:21;;;;;;;26.63;18.20;;;5.10;1.00;;;;;;5068781;28;20272;-55
2020/12/01 11:34:47;;;;;;;25.70;18.35;;;5.00;99.90;;;;;;5059174;28;20636;-55
2020/12/01 11:37:13;;;;;;;25.10;17.70;;;5.00;53.40;;;;;;5059963;28;20246;-57
2020/12/01 11:39:38;;;;;;;24.17;17.67;;;4.90;1.00;;;;;;5066707;28;20193;-55
2020/12/01 11:42:04;;;;;;;23.87;18.23;;;4.80;1.00;;;;;;5050056;28;20584;-57
2020/12/01 11:44:30;;;;;;;24.90;17.70;;;4.70;1.00;;;;;;5054955;28;20259;-55
2020/12/01 11:46:56;;;;;;;24.97;18.83;;;4.70;99.90;;;;;;5050003;28;20455;-56
2020/12/01 11:49:23;;;;;;;22.67;17.73;;;4.60;99.90;;;;;;5054007;28;20263;-53
2020/12/01 11:51:48;;;;;;;25.13;18.02;;;4.50;99.90;;;;;;5068127;28;20238;-56
2020/12/01 11:54:15;;;;;;;28.23;19.37;;;4.50;1.00;;;;;;5068257;28;20197;-57
2020/12/01 11:56:41;;;;;;;27.90;18.58;;;4.30;99.90;;;;;;5052630;28;20548;-59
2020/12/01 11:59:07;;;;;;;24.98;17.45;;;4.40;1.00;;;;;;5055515;28;20193;-54
2020/12/01 12:01:35;;;;;;;26.70;18.33;;;4.40;1.00;;;;;;5063465;28;20554;-54
2020/12/01 12:04:02;;;;;;;24.55;17.83;;;4.30;99.90;;;;;;5061346;28;20580;-53
2020/12/01 12:06:27;;;;;;;24.80;17.58;;;4.30;1.00;;;;;;5049635;28;20619;-57
2020/12/01 12:08:53;;;;;;;27.03;18.30;;;4.30;1.00;;;;;;5049705;28;20244;-56
2020/12/01 12:11:19;;;;;;;25.50;18.27;;;4.30;1.00;;;;;;5058895;28;20235;-54
2020/12/01 12:13:46;;;;;;;26.97;18.50;;;4.30;1.00;;;;;;5060466;28;20216;-54
2020/12/01 12:16:13;;;;;;;25.38;18.38;;;4.30;1.00;;;;;;5051409;28;20259;-57
2020/12/01 12:18:39;;;;;;;26.70;18.08;;;4.20;1.00;;;;;;5064222;28;20193;-55
2020/12/01 12:21:04;;;;;;;28.07;18.90;;;4.30;1.00;;;;;;5055153;28;20792;-56
2020/12/01 12:23:30;;;;;;;25.50;18.37;;;4.30;1.00;;;;;;5067623;28;20185;-55
2020/12/01 12:25:55;;;;;;;23.50;17.27;;;4.40;1.00;;;;;;5061659;28;20186;-54
2020/12/01 12:28:21;;;;;;;24.70;17.77;;;4.50;1.00;;;;;;5065832;28;20177;-56
2020/12/01 12:30:47;;;;;;;32.23;20.73;;;4.40;99.90;;;;;;5069271;28;20180;-56
2020/12/01 12:33:13;;;;;;;25.90;18.67;;;4.40;99.90;;;;;;5066454;28;20650;-56
2020/12/01 12:35:39;;;;;;;26.50;19.10;;;4.40;99.90;;;;;;5068958;28;20196;-56
2020/12/01 12:38:05;;;;;;;25.67;17.93;;;4.40;99.90;;;;;;5067985;28;20431;-55
2020/12/01 12:40:30;;;;;;;26.40;18.20;;;4.50;99.90;;;;;;5050087;28;20324;-57
2020/12/01 12:42:57;;;;;;;26.25;18.73;;;4.50;99.90;;;;;;5066911;28;20236;-54
2020/12/01 12:45:23;;;;;;;29.02;19.90;;;4.50;99.90;;;;;;5067479;28;20600;-56
2020/12/01 12:47:48;;;;;;;28.03;18.53;;;4.40;99.90;;;;;;5069098;28;20197;-57
2020/12/01 12:50:14;;;;;;;27.30;19.10;;;4.50;99.90;;;;;;5067905;28;20967;-57
2020/12/01 12:52:40;;;;;;;25.52;18.95;;;4.60;99.90;;;;;;5069093;28;20186;-55
2020/12/01 12:55:07;;;;;;;28.40;19.27;;;4.70;99.90;;;;;;5066278;28;20184;-55
2020/12/01 12:57:32;;;;;;;25.80;17.75;;;4.80;99.90;;;;;;5069190;28;20185;-57
2020/12/01 12:59:58;;;;;;;25.43;17.50;;;4.80;99.90;;;;;;5066271;28;20959;-57
2020/12/01 13:02:24;;;;;;;27.50;19.20;;;4.80;36.40;;;;;;5060611;28;20533;-57
2020/12/01 13:04:49;;;;;;;24.50;17.33;;;4.70;1.00;;;;;;5050438;28;20562;-56
2020/12/01 13:07:15;;;;;;;27.83;18.40;;;4.70;1.00;;;;;;5053396;28;20471;-57
2020/12/01 13:09:41;;;;;;;30.10;19.13;;;4.60;99.90;;;;;;5068141;28;20234;-55
2020/12/01 13:12:06;;;;;;;29.03;19.60;;;4.70;1.00;;;;;;5066732;28;20177;-55
2020/12/01 13:14:32;;;;;;;26.20;18.40;;;4.60;1.00;;;;;;5065685;28;20690;-57
2020/12/01 13:16:58;;;;;;;28.10;20.40;;;4.50;99.90;;;;;;5064791;28;20207;-53
2020/12/01 13:19:23;;;;;;;26.70;19.33;;;4.60;99.90;;;;;;5068586;28;20599;-55
2020/12/01 13:21:49;;;;;;;28.17;19.33;;;4.60;99.90;;;;;;5067961;28;20259;-55
2020/12/01 13:24:15;;;;;;;29.13;20.20;;;4.60;99.90;;;;;;5064797;28;20170;-55
2020/12/01 13:26:41;;;;;;;25.67;18.95;;;4.60;99.90;;;;;;5064397;28;20169;-57
2020/12/01 13:29:07;;;;;;;29.83;20.03;;;4.60;99.90;;;;;;5067876;28;20203;-57
2020/12/01 13:31:33;;;;;;;29.20;20.17;;;4.50;99.90;;;;;;5064347;28;21132;-55
2020/12/01 13:33:58;;;;;;;30.13;20.27;;;4.40;99.90;;;;;;5057079;28;20978;-55
2020/12/01 13:36:26;;;;;;;29.03;20.10;;;4.40;99.90;;;;;;5058518;28;20174;-57
2020/12/01 13:38:52;;;;;;;33.58;20.85;;;4.40;99.90;;;;;;5067870;28;20438;-55
2020/12/01 13:41:19;;;;;;;30.10;20.95;;;4.30;99.90;;;;;;5064807;28;20232;-55